EIN711 EGLL-EICK
Flight info
| Callsign | EIN711 |
|---|---|
| Flight time | N/A |
| Altitude | 36000 |
| Route | CPT L9 BUCGO DCT FELCA DCT OFSOX DCT BANBA DCT VAPAL VAPAL1R |
| Aircraft | A20N/M-SDE2E3FGHIRWXY/LB1 |
Departure
| Time | N/A |
|---|---|
| Airport | London Heathrow Airport (EGLL) |
Arrival
| Time | 2026-05-06 23:01 |
|---|---|
| Airport | Cork International Airport (EICK) |
| Time | Latitude | Longitude | Altitude | Speed | Heading |
|---|---|---|---|---|---|
| 2026-05-06 22:24 | 51.78720 | -2.90384 | 35375 ft | 423 kts | 275° |
| 2026-05-06 22:24 | 51.79018 | -2.95139 | 35468 ft | 427 kts | 275° |
| 2026-05-06 22:25 | 51.79615 | -3.04788 | 35632 ft | 436 kts | 275° |
| 2026-05-06 22:25 | 51.80215 | -3.14614 | 35826 ft | 443 kts | 275° |
| 2026-05-06 22:26 | 51.80516 | -3.19587 | 36011 ft | 444 kts | 275° |
| 2026-05-06 22:26 | 51.80812 | -3.24501 | 36058 ft | 446 kts | 275° |
| 2026-05-06 22:26 | 51.81404 | -3.34476 | 36033 ft | 445 kts | 275° |
| 2026-05-06 22:27 | 51.81987 | -3.44441 | 36028 ft | 445 kts | 275° |
| 2026-05-06 22:27 | 51.82680 | -3.54356 | 36024 ft | 443 kts | 279° |
| 2026-05-06 22:28 | 51.83849 | -3.64137 | 36024 ft | 444 kts | 281° |
| 2026-05-06 22:28 | 51.85110 | -3.73914 | 36024 ft | 444 kts | 281° |
| 2026-05-06 22:29 | 51.86372 | -3.83626 | 36024 ft | 443 kts | 281° |
| 2026-05-06 22:29 | 51.87627 | -3.93403 | 36021 ft | 443 kts | 281° |
| 2026-05-06 22:30 | 51.88865 | -4.03163 | 36020 ft | 442 kts | 281° |
| 2026-05-06 22:30 | 51.90091 | -4.12924 | 36021 ft | 442 kts | 281° |
| 2026-05-06 22:31 | 51.91312 | -4.22701 | 36020 ft | 442 kts | 281° |
| 2026-05-06 22:31 | 51.92515 | -4.32411 | 36022 ft | 442 kts | 281° |
| 2026-05-06 22:32 | 51.93718 | -4.42187 | 36023 ft | 442 kts | 281° |
| 2026-05-06 22:32 | 51.94911 | -4.51952 | 36023 ft | 441 kts | 281° |
| 2026-05-06 22:33 | 51.96086 | -4.61637 | 36027 ft | 435 kts | 281° |
| 2026-05-06 22:33 | 51.97242 | -4.71242 | 36023 ft | 433 kts | 280° |
| 2026-05-06 22:34 | 51.98395 | -4.80889 | 36022 ft | 439 kts | 280° |
| 2026-05-06 22:34 | 51.99549 | -4.90619 | 35860 ft | 434 kts | 280° |
| 2026-05-06 22:35 | 52.00115 | -4.95411 | 35496 ft | 428 kts | 280° |
| 2026-05-06 22:35 | 52.00671 | -5.00140 | 35040 ft | 425 kts | 280° |
| 2026-05-06 22:35 | 52.01222 | -5.04842 | 34510 ft | 423 kts | 280° |
| 2026-05-06 22:35 | 52.01764 | -5.09493 | 33776 ft | 427 kts | 280° |
| 2026-05-06 22:36 | 52.02315 | -5.14238 | 32945 ft | 429 kts | 280° |
| 2026-05-06 22:36 | 52.02663 | -5.19067 | 32135 ft | 431 kts | 271° |
| 2026-05-06 22:36 | 52.02564 | -5.23946 | 31352 ft | 432 kts | 266° |
| 2026-05-06 22:36 | 52.02323 | -5.28831 | 30591 ft | 434 kts | 265° |
| 2026-05-06 22:37 | 52.02011 | -5.33721 | 29805 ft | 435 kts | 264° |
| 2026-05-06 22:37 | 52.01663 | -5.38602 | 28945 ft | 435 kts | 263° |
| 2026-05-06 22:37 | 52.01299 | -5.43485 | 28112 ft | 436 kts | 263° |
| 2026-05-06 22:37 | 52.00932 | -5.48392 | 27301 ft | 438 kts | 263° |
| 2026-05-06 22:38 | 52.00567 | -5.53316 | 26517 ft | 442 kts | 263° |
| 2026-05-06 22:38 | 52.00206 | -5.58223 | 25758 ft | 445 kts | 263° |
| 2026-05-06 22:38 | 51.99841 | -5.63221 | 25011 ft | 448 kts | 264° |
| 2026-05-06 22:38 | 51.99474 | -5.68256 | 24284 ft | 450 kts | 264° |
| 2026-05-06 22:39 | 51.99104 | -5.73327 | 23568 ft | 453 kts | 264° |
| 2026-05-06 22:39 | 51.98731 | -5.78400 | 22733 ft | 453 kts | 264° |
| 2026-05-06 22:39 | 51.98357 | -5.83462 | 21917 ft | 450 kts | 264° |
| 2026-05-06 22:39 | 51.97985 | -5.88470 | 21140 ft | 445 kts | 264° |
| 2026-05-06 22:40 | 51.97613 | -5.93436 | 20407 ft | 440 kts | 264° |
| 2026-05-06 22:40 | 51.97244 | -5.98324 | 20011 ft | 436 kts | 263° |
| 2026-05-06 22:40 | 51.96874 | -6.03211 | 19758 ft | 435 kts | 263° |
| 2026-05-06 22:40 | 51.96504 | -6.08068 | 19344 ft | 433 kts | 263° |
| 2026-05-06 22:41 | 51.95763 | -6.17723 | 18384 ft | 429 kts | 263° |
| 2026-05-06 22:41 | 51.95395 | -6.22510 | 17842 ft | 426 kts | 264° |
| 2026-05-06 22:41 | 51.95136 | -6.27226 | 17312 ft | 424 kts | 266° |
| 2026-05-06 22:42 | 51.94938 | -6.31972 | 16768 ft | 420 kts | 267° |
| 2026-05-06 22:42 | 51.94751 | -6.36678 | 16029 ft | 416 kts | 266° |
| 2026-05-06 22:42 | 51.94563 | -6.41355 | 15265 ft | 413 kts | 266° |
| 2026-05-06 22:42 | 51.94372 | -6.45998 | 14528 ft | 411 kts | 266° |
| 2026-05-06 22:43 | 51.94179 | -6.50609 | 13793 ft | 407 kts | 266° |
| 2026-05-06 22:43 | 51.93988 | -6.55120 | 13059 ft | 403 kts | 266° |
| 2026-05-06 22:43 | 51.93795 | -6.59618 | 12688 ft | 400 kts | 266° |
| 2026-05-06 22:43 | 51.93600 | -6.64137 | 12363 ft | 402 kts | 266° |
| 2026-05-06 22:44 | 51.93402 | -6.68662 | 11970 ft | 402 kts | 266° |
| 2026-05-06 22:44 | 51.93204 | -6.73157 | 11591 ft | 397 kts | 266° |
| 2026-05-06 22:44 | 51.93006 | -6.77605 | 11213 ft | 393 kts | 266° |
| 2026-05-06 22:44 | 51.92808 | -6.82018 | 10840 ft | 391 kts | 266° |
| 2026-05-06 22:45 | 51.92609 | -6.86415 | 10467 ft | 391 kts | 266° |
| 2026-05-06 22:45 | 51.92409 | -6.90806 | 10103 ft | 390 kts | 266° |
| 2026-05-06 22:45 | 51.92208 | -6.95181 | 9721 ft | 389 kts | 266° |
| 2026-05-06 22:45 | 51.92005 | -6.99543 | 9310 ft | 386 kts | 266° |
| 2026-05-06 22:46 | 51.91879 | -7.03872 | 8909 ft | 382 kts | 271° |
| 2026-05-06 22:46 | 51.92137 | -7.08133 | 8518 ft | 379 kts | 278° |
| 2026-05-06 22:46 | 51.92565 | -7.12313 | 8132 ft | 375 kts | 280° |
| 2026-05-06 22:46 | 51.93033 | -7.16404 | 7754 ft | 372 kts | 281° |
| 2026-05-06 22:47 | 51.93518 | -7.20497 | 7375 ft | 368 kts | 281° |
| 2026-05-06 22:47 | 51.94005 | -7.24558 | 6996 ft | 365 kts | 281° |
| 2026-05-06 22:47 | 51.94489 | -7.28566 | 6631 ft | 362 kts | 281° |
| 2026-05-06 22:47 | 51.94970 | -7.32556 | 6301 ft | 359 kts | 282° |
| 2026-05-06 22:48 | 51.95449 | -7.36525 | 6027 ft | 358 kts | 281° |
| 2026-05-06 22:48 | 51.95926 | -7.40485 | 5765 ft | 358 kts | 281° |
| 2026-05-06 22:48 | 51.96402 | -7.44451 | 5500 ft | 358 kts | 281° |
| 2026-05-06 22:48 | 51.96871 | -7.48362 | 5242 ft | 357 kts | 282° |
| 2026-05-06 22:49 | 51.97341 | -7.52301 | 5003 ft | 356 kts | 282° |
| 2026-05-06 22:49 | 51.97810 | -7.56237 | 4740 ft | 355 kts | 282° |
| 2026-05-06 22:49 | 51.98277 | -7.60174 | 4468 ft | 354 kts | 282° |
| 2026-05-06 22:49 | 51.98741 | -7.64087 | 4212 ft | 353 kts | 281° |
| 2026-05-06 22:50 | 51.99203 | -7.67993 | 3947 ft | 352 kts | 281° |
| 2026-05-06 22:50 | 51.99662 | -7.71895 | 3683 ft | 352 kts | 281° |
| 2026-05-06 22:50 | 52.00115 | -7.75762 | 3451 ft | 351 kts | 281° |
| 2026-05-06 22:50 | 52.00570 | -7.79647 | 3316 ft | 351 kts | 281° |
| 2026-05-06 22:51 | 52.01023 | -7.83535 | 3190 ft | 350 kts | 281° |
| 2026-05-06 22:51 | 52.01475 | -7.87421 | 3043 ft | 350 kts | 281° |
| 2026-05-06 22:51 | 52.01926 | -7.91311 | 2993 ft | 351 kts | 281° |
| 2026-05-06 22:51 | 52.02375 | -7.95206 | 2984 ft | 350 kts | 281° |
| 2026-05-06 22:52 | 52.02822 | -7.99096 | 2989 ft | 349 kts | 281° |
| 2026-05-06 22:52 | 52.03268 | -8.02972 | 2988 ft | 349 kts | 281° |
| 2026-05-06 22:52 | 52.03714 | -8.06852 | 2988 ft | 350 kts | 281° |
| 2026-05-06 22:52 | 52.04158 | -8.10738 | 2990 ft | 350 kts | 281° |
| 2026-05-06 22:53 | 52.04600 | -8.14618 | 2990 ft | 350 kts | 281° |
| 2026-05-06 22:53 | 52.05041 | -8.18500 | 2987 ft | 349 kts | 281° |
| 2026-05-06 22:53 | 52.05478 | -8.22376 | 2988 ft | 349 kts | 281° |
| 2026-05-06 22:53 | 52.05898 | -8.26108 | 2991 ft | 327 kts | 281° |
| 2026-05-06 22:54 | 52.06295 | -8.29622 | 2990 ft | 306 kts | 281° |
| 2026-05-06 22:54 | 52.06665 | -8.32900 | 2991 ft | 284 kts | 281° |
| 2026-05-06 22:54 | 52.07003 | -8.35946 | 2996 ft | 264 kts | 281° |
| 2026-05-06 22:54 | 52.07317 | -8.38785 | 2991 ft | 246 kts | 281° |
| 2026-05-06 22:55 | 52.07576 | -8.41436 | 2990 ft | 230 kts | 276° |
| 2026-05-06 22:55 | 52.07478 | -8.44000 | 3015 ft | 226 kts | 258° |
| 2026-05-06 22:55 | 52.07045 | -8.46357 | 3008 ft | 209 kts | 252° |
| 2026-05-06 22:55 | 52.06496 | -8.48443 | 2989 ft | 194 kts | 239° |
| 2026-05-06 22:56 | 52.05623 | -8.50068 | 2993 ft | 191 kts | 219° |
| 2026-05-06 22:56 | 52.04505 | -8.51251 | 2994 ft | 192 kts | 210° |
| 2026-05-06 22:56 | 52.03307 | -8.52213 | 2996 ft | 192 kts | 207° |
| 2026-05-06 22:56 | 52.02121 | -8.53179 | 2992 ft | 194 kts | 207° |
| 2026-05-06 22:57 | 52.00912 | -8.54157 | 2993 ft | 194 kts | 206° |
| 2026-05-06 22:57 | 51.99702 | -8.55121 | 2991 ft | 193 kts | 206° |
| 2026-05-06 22:57 | 51.98495 | -8.56073 | 2989 ft | 193 kts | 205° |
| 2026-05-06 22:57 | 51.97190 | -8.56480 | 3005 ft | 192 kts | 180° |
| 2026-05-06 22:58 | 51.95910 | -8.56144 | 2950 ft | 180 kts | 160° |
| 2026-05-06 22:58 | 51.94762 | -8.55406 | 2693 ft | 175 kts | 157° |
| 2026-05-06 22:58 | 51.93620 | -8.54725 | 2375 ft | 174 kts | 160° |
| 2026-05-06 22:58 | 51.92511 | -8.54077 | 2117 ft | 163 kts | 157° |
| 2026-05-06 22:59 | 51.91496 | -8.53469 | 1902 ft | 148 kts | 158° |
| 2026-05-06 22:59 | 51.90578 | -8.52925 | 1726 ft | 138 kts | 158° |
| 2026-05-06 22:59 | 51.89683 | -8.52395 | 1507 ft | 136 kts | 158° |
| 2026-05-06 22:59 | 51.88791 | -8.51866 | 1325 ft | 137 kts | 158° |
| 2026-05-06 23:00 | 51.87897 | -8.51336 | 1125 ft | 137 kts | 159° |
| 2026-05-06 23:00 | 51.87003 | -8.50811 | 933 ft | 136 kts | 159° |
| 2026-05-06 23:00 | 51.86120 | -8.50288 | 749 ft | 134 kts | 159° |
| 2026-05-06 23:00 | 51.85227 | -8.49770 | 579 ft | 137 kts | 159° |
| 2026-05-06 23:01 | 51.84368 | -8.49238 | 483 ft | 121 kts | 166° |
| 2026-05-06 23:01 | 51.83667 | -8.48832 | 471 ft | 94 kts | 159° |
| 2026-05-06 23:01 | 51.83342 | -8.48644 | 468 ft | 28 kts | 161° |
| 2026-05-06 23:01 | 51.83278 | -8.48531 | 473 ft | 9 kts | 163° |
| 2026-05-06 23:02 | 51.83285 | -8.48607 | 473 ft | 16 kts | 319° |
| 2026-05-06 23:02 | 51.83441 | -8.48697 | 471 ft | 33 kts | 339° |
| 2026-05-06 23:02 | 51.83698 | -8.48852 | 471 ft | 42 kts | 340° |
| 2026-05-06 23:02 | 51.83965 | -8.49011 | 474 ft | 40 kts | 340° |
| 2026-05-06 23:03 | 51.84215 | -8.49160 | 477 ft | 37 kts | 340° |
| 2026-05-06 23:03 | 51.84449 | -8.49295 | 486 ft | 35 kts | 339° |
| 2026-05-06 23:03 | 51.84664 | -8.49426 | 492 ft | 21 kts | 339° |
| 2026-05-06 23:03 | 51.84769 | -8.49425 | 490 ft | 15 kts | 52° |
| 2026-05-06 23:04 | 51.84804 | -8.49301 | 501 ft | 9 kts | 69° |
| 2026-05-06 23:04 | 51.84814 | -8.49241 | 504 ft | 1 kts | 78° |
| 2026-05-06 23:04 | 51.84821 | -8.49184 | 506 ft | 9 kts | 78° |
| 2026-05-06 23:04 | 51.84838 | -8.49096 | 506 ft | 4 kts | 70° |
| 2026-05-06 23:05 | 51.84844 | -8.49070 | 506 ft | 2 kts | 69° |
| 2026-05-06 23:05 | 51.84848 | -8.49051 | 506 ft | 0 kts | 70° |